Hennessey, Oklahoma
Current Conditions -  °F | °C
As of 5:58 AM on Friday 31 Oct 2014 (Local Time) from KEND Reporting Station
Clear Clear  
Wind Chill:   Ceiling: Unl
Heat Index:   Visibility: 10mi
Dew Point:   Wind: 16mph
Humidity: 78%   Direction: 10°N
Pressure: 30.38"   Gusts: 25mph
Location:  36.11°N, 97.9°W
Report Text: KEND 311058Z AUTO 01014G22KT 350V050 10SM CLR 07/03 A3038 RMK AO2 SLP287 T00660030 $
Loading
Personal Weather Stations






























Interactive Weather Map
Tropical Storm Tracking
New forecast layout! Learn more

10-Day Weather Forecast

Advertisements
Track Severe Weather on mobile